sensor_id;sensor_type;location;lat;lon;timestamp;P1;durP1;ratioP1;P2;durP2;ratioP2
944;SDS011;459;48.676;9.034;2023-02-28T00:02:15;4.07;;;3.70;;
944;SDS011;459;48.676;9.034;2023-02-28T00:04:42;4.60;;;3.30;;
944;SDS011;459;48.676;9.034;2023-02-28T00:07:07;3.80;;;3.20;;
944;SDS011;459;48.676;9.034;2023-02-28T00:09:32;3.43;;;3.13;;
944;SDS011;459;48.676;9.034;2023-02-28T00:11:57;3.40;;;3.10;;
944;SDS011;459;48.676;9.034;2023-02-28T00:14:23;3.27;;;2.97;;
944;SDS011;459;48.676;9.034;2023-02-28T00:16:48;3.57;;;3.30;;
944;SDS011;459;48.676;9.034;2023-02-28T00:19:13;3.83;;;3.43;;
944;SDS011;459;48.676;9.034;2023-02-28T00:21:38;3.83;;;3.20;;
944;SDS011;459;48.676;9.034;2023-02-28T00:24:05;4.30;;;3.70;;
944;SDS011;459;48.676;9.034;2023-02-28T00:26:30;3.87;;;3.03;;
944;SDS011;459;48.676;9.034;2023-02-28T00:28:56;3.50;;;3.20;;
944;SDS011;459;48.676;9.034;2023-02-28T00:31:21;4.13;;;3.77;;
944;SDS011;459;48.676;9.034;2023-02-28T00:33:46;3.93;;;3.53;;
944;SDS011;459;48.676;9.034;2023-02-28T00:36:11;4.00;;;3.70;;
944;SDS011;459;48.676;9.034;2023-02-28T00:38:37;3.30;;;3.10;;
944;SDS011;459;48.676;9.034;2023-02-28T00:41:02;4.20;;;3.80;;
944;SDS011;459;48.676;9.034;2023-02-28T00:43:34;4.50;;;4.10;;
944;SDS011;459;48.676;9.034;2023-02-28T00:45:59;4.83;;;3.70;;
944;SDS011;459;48.676;9.034;2023-02-28T00:48:25;4.17;;;3.77;;
944;SDS011;459;48.676;9.034;2023-02-28T00:50:50;3.83;;;3.43;;
944;SDS011;459;48.676;9.034;2023-02-28T00:53:15;4.37;;;3.97;;
944;SDS011;459;48.676;9.034;2023-02-28T00:55:40;4.83;;;3.33;;
944;SDS011;459;48.676;9.034;2023-02-28T00:58:05;4.30;;;3.93;;
944;SDS011;459;48.676;9.034;2023-02-28T01:00:31;3.10;;;2.90;;
944;SDS011;459;48.676;9.034;2023-02-28T01:02:56;4.70;;;4.27;;
944;SDS011;459;48.676;9.034;2023-02-28T01:05:21;6.27;;;3.93;;
944;SDS011;459;48.676;9.034;2023-02-28T01:07:46;4.30;;;3.53;;
944;SDS011;459;48.676;9.034;2023-02-28T01:10:11;3.50;;;3.20;;
944;SDS011;459;48.676;9.034;2023-02-28T01:12:37;4.27;;;3.83;;
944;SDS011;459;48.676;9.034;2023-02-28T01:15:02;4.33;;;3.37;;
944;SDS011;459;48.676;9.034;2023-02-28T01:17:27;4.07;;;3.70;;
944;SDS011;459;48.676;9.034;2023-02-28T01:19:53;4.40;;;3.40;;
944;SDS011;459;48.676;9.034;2023-02-28T01:22:18;5.90;;;3.40;;
944;SDS011;459;48.676;9.034;2023-02-28T01:24:43;4.10;;;3.40;;
944;SDS011;459;48.676;9.034;2023-02-28T01:27:08;4.30;;;3.93;;
944;SDS011;459;48.676;9.034;2023-02-28T01:29:34;3.77;;;3.17;;
944;SDS011;459;48.676;9.034;2023-02-28T01:31:59;5.93;;;4.00;;
944;SDS011;459;48.676;9.034;2023-02-28T01:34:24;3.63;;;3.33;;
944;SDS011;459;48.676;9.034;2023-02-28T01:36:49;4.53;;;4.13;;
944;SDS011;459;48.676;9.034;2023-02-28T01:39:14;5.47;;;3.60;;
944;SDS011;459;48.676;9.034;2023-02-28T01:41:40;6.97;;;4.33;;
944;SDS011;459;48.676;9.034;2023-02-28T01:44:07;4.80;;;4.30;;
944;SDS011;459;48.676;9.034;2023-02-28T01:46:35;4.60;;;4.17;;
944;SDS011;459;48.676;9.034;2023-02-28T01:49:11;4.93;;;4.53;;
944;SDS011;459;48.676;9.034;2023-02-28T01:51:47;6.17;;;4.70;;
944;SDS011;459;48.676;9.034;2023-02-28T01:54:20;3.73;;;3.33;;
944;SDS011;459;48.676;9.034;2023-02-28T01:56:48;6.23;;;4.27;;
944;SDS011;459;48.676;9.034;2023-02-28T01:59:14;4.77;;;4.10;;
944;SDS011;459;48.676;9.034;2023-02-28T02:01:41;5.03;;;3.83;;
944;SDS011;459;48.676;9.034;2023-02-28T02:04:06;4.00;;;3.57;;
944;SDS011;459;48.676;9.034;2023-02-28T02:06:34;4.70;;;3.90;;
944;SDS011;459;48.676;9.034;2023-02-28T02:09:00;5.03;;;3.43;;
944;SDS011;459;48.676;9.034;2023-02-28T02:11:26;5.83;;;4.00;;
944;SDS011;459;48.676;9.034;2023-02-28T02:16:42;5.07;;;4.20;;
944;SDS011;459;48.676;9.034;2023-02-28T02:32:54;4.43;;;4.03;;
944;SDS011;459;48.676;9.034;2023-02-28T02:35:27;4.47;;;4.07;;
944;SDS011;459;48.676;9.034;2023-02-28T02:37:59;4.83;;;4.33;;
944;SDS011;459;48.676;9.034;2023-02-28T02:40:27;5.37;;;4.60;;
944;SDS011;459;48.676;9.034;2023-02-28T02:45:25;4.57;;;4.17;;
944;SDS011;459;48.676;9.034;2023-02-28T02:47:52;6.23;;;4.40;;
944;SDS011;459;48.676;9.034;2023-02-28T02:50:20;7.13;;;4.90;;
944;SDS011;459;48.676;9.034;2023-02-28T02:52:48;4.70;;;4.13;;
944;SDS011;459;48.676;9.034;2023-02-28T02:55:15;5.00;;;4.50;;
944;SDS011;459;48.676;9.034;2023-02-28T02:57:44;5.20;;;4.73;;
944;SDS011;459;48.676;9.034;2023-02-28T03:00:11;4.67;;;4.27;;
944;SDS011;459;48.676;9.034;2023-02-28T03:02:37;7.37;;;5.00;;
944;SDS011;459;48.676;9.034;2023-02-28T03:05:08;5.70;;;5.20;;
944;SDS011;459;48.676;9.034;2023-02-28T03:07:37;5.73;;;4.50;;
944;SDS011;459;48.676;9.034;2023-02-28T03:10:03;4.60;;;4.00;;
944;SDS011;459;48.676;9.034;2023-02-28T03:12:44;5.33;;;4.77;;
944;SDS011;459;48.676;9.034;2023-02-28T03:15:20;5.27;;;4.77;;
944;SDS011;459;48.676;9.034;2023-02-28T03:17:54;4.93;;;4.33;;
944;SDS011;459;48.676;9.034;2023-02-28T03:25:37;4.73;;;4.33;;
944;SDS011;459;48.676;9.034;2023-02-28T03:28:15;5.87;;;4.70;;
944;SDS011;459;48.676;9.034;2023-02-28T03:30:45;5.73;;;5.13;;
944;SDS011;459;48.676;9.034;2023-02-28T03:33:16;5.50;;;5.00;;
944;SDS011;459;48.676;9.034;2023-02-28T03:35:43;5.47;;;4.97;;
944;SDS011;459;48.676;9.034;2023-02-28T03:38:18;6.00;;;5.40;;
944;SDS011;459;48.676;9.034;2023-02-28T03:40:47;6.20;;;5.00;;
944;SDS011;459;48.676;9.034;2023-02-28T03:43:14;6.03;;;4.83;;
944;SDS011;459;48.676;9.034;2023-02-28T03:45:42;8.57;;;5.80;;
944;SDS011;459;48.676;9.034;2023-02-28T03:48:22;5.60;;;5.10;;
944;SDS011;459;48.676;9.034;2023-02-28T03:50:49;5.50;;;5.00;;
944;SDS011;459;48.676;9.034;2023-02-28T03:53:19;5.93;;;5.43;;
944;SDS011;459;48.676;9.034;2023-02-28T03:55:49;6.03;;;5.50;;
944;SDS011;459;48.676;9.034;2023-02-28T03:58:22;5.63;;;5.13;;
944;SDS011;459;48.676;9.034;2023-02-28T04:00:52;6.07;;;5.43;;
944;SDS011;459;48.676;9.034;2023-02-28T04:03:18;9.27;;;5.53;;
944;SDS011;459;48.676;9.034;2023-02-28T04:05:53;7.07;;;5.97;;
944;SDS011;459;48.676;9.034;2023-02-28T04:08:19;7.70;;;5.60;;
944;SDS011;459;48.676;9.034;2023-02-28T04:10:45;6.33;;;5.77;;
944;SDS011;459;48.676;9.034;2023-02-28T04:13:12;5.90;;;5.40;;
944;SDS011;459;48.676;9.034;2023-02-28T04:15:37;5.27;;;4.77;;
944;SDS011;459;48.676;9.034;2023-02-28T04:18:02;6.07;;;5.27;;
944;SDS011;459;48.676;9.034;2023-02-28T04:20:27;8.50;;;5.87;;
944;SDS011;459;48.676;9.034;2023-02-28T04:22:52;5.70;;;5.10;;
944;SDS011;459;48.676;9.034;2023-02-28T04:25:18;6.47;;;5.60;;
944;SDS011;459;48.676;9.034;2023-02-28T04:27:43;8.33;;;5.83;;
944;SDS011;459;48.676;9.034;2023-02-28T04:30:09;6.60;;;5.90;;
944;SDS011;459;48.676;9.034;2023-02-28T04:32:35;6.50;;;5.90;;
944;SDS011;459;48.676;9.034;2023-02-28T04:35:00;6.63;;;5.50;;
944;SDS011;459;48.676;9.034;2023-02-28T04:37:25;6.83;;;5.40;;
944;SDS011;459;48.676;9.034;2023-02-28T04:39:53;7.97;;;5.83;;
944;SDS011;459;48.676;9.034;2023-02-28T04:42:19;5.87;;;5.27;;
944;SDS011;459;48.676;9.034;2023-02-28T04:44:44;9.53;;;6.00;;
944;SDS011;459;48.676;9.034;2023-02-28T04:47:09;7.20;;;5.80;;
944;SDS011;459;48.676;9.034;2023-02-28T04:49:36;6.07;;;5.53;;
944;SDS011;459;48.676;9.034;2023-02-28T04:52:01;8.10;;;6.07;;
944;SDS011;459;48.676;9.034;2023-02-28T04:54:26;8.20;;;6.40;;
944;SDS011;459;48.676;9.034;2023-02-28T04:56:53;7.83;;;5.47;;
944;SDS011;459;48.676;9.034;2023-02-28T04:59:19;8.17;;;6.60;;
944;SDS011;459;48.676;9.034;2023-02-28T05:01:46;6.47;;;5.90;;
944;SDS011;459;48.676;9.034;2023-02-28T05:04:11;6.87;;;5.90;;
944;SDS011;459;48.676;9.034;2023-02-28T05:06:36;8.97;;;7.60;;
944;SDS011;459;48.676;9.034;2023-02-28T05:09:02;6.90;;;5.93;;
944;SDS011;459;48.676;9.034;2023-02-28T05:11:28;7.37;;;5.63;;
944;SDS011;459;48.676;9.034;2023-02-28T05:13:58;8.67;;;7.83;;
944;SDS011;459;48.676;9.034;2023-02-28T05:16:23;7.07;;;6.03;;
944;SDS011;459;48.676;9.034;2023-02-28T05:18:49;6.50;;;5.93;;
944;SDS011;459;48.676;9.034;2023-02-28T05:21:28;6.53;;;6.00;;
944;SDS011;459;48.676;9.034;2023-02-28T05:23:53;9.73;;;6.83;;
944;SDS011;459;48.676;9.034;2023-02-28T05:26:19;8.77;;;7.03;;
944;SDS011;459;48.676;9.034;2023-02-28T05:28:44;8.07;;;7.00;;
944;SDS011;459;48.676;9.034;2023-02-28T05:31:13;9.63;;;6.40;;
944;SDS011;459;48.676;9.034;2023-02-28T05:33:38;6.70;;;6.10;;
944;SDS011;459;48.676;9.034;2023-02-28T05:36:04;8.17;;;5.90;;
944;SDS011;459;48.676;9.034;2023-02-28T05:38:29;9.53;;;6.97;;
944;SDS011;459;48.676;9.034;2023-02-28T05:40:55;7.63;;;6.37;;
944;SDS011;459;48.676;9.034;2023-02-28T05:43:21;9.60;;;7.60;;
944;SDS011;459;48.676;9.034;2023-02-28T05:45:46;7.50;;;6.60;;
944;SDS011;459;48.676;9.034;2023-02-28T05:48:11;9.43;;;7.60;;
944;SDS011;459;48.676;9.034;2023-02-28T05:50:36;9.13;;;7.20;;
944;SDS011;459;48.676;9.034;2023-02-28T05:53:01;10.40;;;7.10;;
944;SDS011;459;48.676;9.034;2023-02-28T05:55:27;7.37;;;6.67;;
944;SDS011;459;48.676;9.034;2023-02-28T05:57:52;7.20;;;6.20;;
944;SDS011;459;48.676;9.034;2023-02-28T06:00:17;8.73;;;7.70;;
944;SDS011;459;48.676;9.034;2023-02-28T06:02:43;9.80;;;7.17;;
944;SDS011;459;48.676;9.034;2023-02-28T06:05:12;10.00;;;7.23;;
944;SDS011;459;48.676;9.034;2023-02-28T06:07:38;8.10;;;7.30;;
944;SDS011;459;48.676;9.034;2023-02-28T06:10:03;10.40;;;8.30;;
944;SDS011;459;48.676;9.034;2023-02-28T06:12:28;7.97;;;7.17;;
944;SDS011;459;48.676;9.034;2023-02-28T06:14:53;8.57;;;7.57;;
944;SDS011;459;48.676;9.034;2023-02-28T06:17:18;9.93;;;7.10;;
944;SDS011;459;48.676;9.034;2023-02-28T06:19:44;11.10;;;8.00;;
944;SDS011;459;48.676;9.034;2023-02-28T06:22:09;9.40;;;7.97;;
944;SDS011;459;48.676;9.034;2023-02-28T06:24:34;8.40;;;7.50;;
944;SDS011;459;48.676;9.034;2023-02-28T06:26:59;8.43;;;7.57;;
944;SDS011;459;48.676;9.034;2023-02-28T06:29:30;7.70;;;7.10;;
944;SDS011;459;48.676;9.034;2023-02-28T06:31:55;9.70;;;7.60;;
944;SDS011;459;48.676;9.034;2023-02-28T06:34:20;7.50;;;6.60;;
944;SDS011;459;48.676;9.034;2023-02-28T06:36:45;11.47;;;7.77;;
944;SDS011;459;48.676;9.034;2023-02-28T06:39:10;8.27;;;7.27;;
944;SDS011;459;48.676;9.034;2023-02-28T06:41:35;7.53;;;6.83;;
944;SDS011;459;48.676;9.034;2023-02-28T06:44:03;9.90;;;8.20;;
944;SDS011;459;48.676;9.034;2023-02-28T06:46:28;8.63;;;7.73;;
944;SDS011;459;48.676;9.034;2023-02-28T06:48:54;9.23;;;7.03;;
944;SDS011;459;48.676;9.034;2023-02-28T06:51:19;8.37;;;7.50;;
944;SDS011;459;48.676;9.034;2023-02-28T06:53:47;10.37;;;7.83;;
944;SDS011;459;48.676;9.034;2023-02-28T06:56:12;9.37;;;8.47;;
944;SDS011;459;48.676;9.034;2023-02-28T06:58:38;10.00;;;7.93;;
944;SDS011;459;48.676;9.034;2023-02-28T07:01:04;7.63;;;6.93;;
944;SDS011;459;48.676;9.034;2023-02-28T07:03:29;8.67;;;7.83;;
944;SDS011;459;48.676;9.034;2023-02-28T07:05:54;9.30;;;8.30;;
944;SDS011;459;48.676;9.034;2023-02-28T07:08:21;11.40;;;8.80;;
944;SDS011;459;48.676;9.034;2023-02-28T07:10:47;9.80;;;8.50;;
944;SDS011;459;48.676;9.034;2023-02-28T07:13:12;10.27;;;7.50;;
944;SDS011;459;48.676;9.034;2023-02-28T07:15:37;13.93;;;8.57;;
944;SDS011;459;48.676;9.034;2023-02-28T07:18:02;9.60;;;7.70;;
944;SDS011;459;48.676;9.034;2023-02-28T07:20:28;11.30;;;8.73;;
944;SDS011;459;48.676;9.034;2023-02-28T07:22:53;8.67;;;7.23;;
944;SDS011;459;48.676;9.034;2023-02-28T07:25:22;9.33;;;7.20;;
944;SDS011;459;48.676;9.034;2023-02-28T07:27:47;10.60;;;8.53;;
944;SDS011;459;48.676;9.034;2023-02-28T07:30:13;9.43;;;7.90;;
944;SDS011;459;48.676;9.034;2023-02-28T07:32:38;9.13;;;7.50;;
944;SDS011;459;48.676;9.034;2023-02-28T07:35:03;12.73;;;9.30;;
944;SDS011;459;48.676;9.034;2023-02-28T07:37:29;8.83;;;8.03;;
944;SDS011;459;48.676;9.034;2023-02-28T07:39:56;10.20;;;8.73;;
944;SDS011;459;48.676;9.034;2023-02-28T07:42:21;10.80;;;8.13;;
944;SDS011;459;48.676;9.034;2023-02-28T07:44:46;10.47;;;8.87;;
944;SDS011;459;48.676;9.034;2023-02-28T07:47:12;13.00;;;9.80;;
944;SDS011;459;48.676;9.034;2023-02-28T07:49:37;11.43;;;8.73;;
944;SDS011;459;48.676;9.034;2023-02-28T07:52:03;9.47;;;8.03;;
944;SDS011;459;48.676;9.034;2023-02-28T07:54:28;9.87;;;8.00;;
944;SDS011;459;48.676;9.034;2023-02-28T07:56:54;10.20;;;8.43;;
944;SDS011;459;48.676;9.034;2023-02-28T07:59:19;10.23;;;8.60;;
944;SDS011;459;48.676;9.034;2023-02-28T08:01:44;9.70;;;8.70;;
944;SDS011;459;48.676;9.034;2023-02-28T08:04:09;9.70;;;8.70;;
944;SDS011;459;48.676;9.034;2023-02-28T08:06:34;9.60;;;8.53;;
944;SDS011;459;48.676;9.034;2023-02-28T08:09:00;11.90;;;9.23;;
944;SDS011;459;48.676;9.034;2023-02-28T08:11:25;9.80;;;8.80;;
944;SDS011;459;48.676;9.034;2023-02-28T08:13:50;13.07;;;10.30;;
944;SDS011;459;48.676;9.034;2023-02-28T08:16:15;12.43;;;8.83;;
944;SDS011;459;48.676;9.034;2023-02-28T08:18:46;11.57;;;10.37;;
944;SDS011;459;48.676;9.034;2023-02-28T08:21:11;11.00;;;9.90;;
944;SDS011;459;48.676;9.034;2023-02-28T08:23:36;14.20;;;10.77;;
944;SDS011;459;48.676;9.034;2023-02-28T08:26:02;9.77;;;8.33;;
944;SDS011;459;48.676;9.034;2023-02-28T08:28:27;11.40;;;9.10;;
944;SDS011;459;48.676;9.034;2023-02-28T08:30:53;10.40;;;9.20;;
944;SDS011;459;48.676;9.034;2023-02-28T08:33:18;10.23;;;9.03;;
944;SDS011;459;48.676;9.034;2023-02-28T08:35:44;13.53;;;9.40;;
944;SDS011;459;48.676;9.034;2023-02-28T08:38:09;8.77;;;7.93;;
944;SDS011;459;48.676;9.034;2023-02-28T08:40:34;13.03;;;9.73;;
944;SDS011;459;48.676;9.034;2023-02-28T08:42:59;21.67;;;10.87;;
944;SDS011;459;48.676;9.034;2023-02-28T08:45:25;11.90;;;9.70;;
944;SDS011;459;48.676;9.034;2023-02-28T08:47:50;10.37;;;9.23;;
944;SDS011;459;48.676;9.034;2023-02-28T08:50:17;10.47;;;9.37;;
944;SDS011;459;48.676;9.034;2023-02-28T08:52:42;12.43;;;9.47;;
944;SDS011;459;48.676;9.034;2023-02-28T08:55:08;11.20;;;9.40;;
944;SDS011;459;48.676;9.034;2023-02-28T08:57:34;10.80;;;9.77;;
944;SDS011;459;48.676;9.034;2023-02-28T08:59:59;11.97;;;8.93;;
944;SDS011;459;48.676;9.034;2023-02-28T09:02:24;10.70;;;9.60;;
944;SDS011;459;48.676;9.034;2023-02-28T09:04:49;13.60;;;9.90;;
944;SDS011;459;48.676;9.034;2023-02-28T09:07:15;9.33;;;8.27;;
944;SDS011;459;48.676;9.034;2023-02-28T09:09:40;10.63;;;9.60;;
944;SDS011;459;48.676;9.034;2023-02-28T09:12:18;13.03;;;9.90;;
944;SDS011;459;48.676;9.034;2023-02-28T09:14:43;13.20;;;9.77;;
944;SDS011;459;48.676;9.034;2023-02-28T09:17:08;12.53;;;9.50;;
944;SDS011;459;48.676;9.034;2023-02-28T09:19:34;11.13;;;10.00;;
944;SDS011;459;48.676;9.034;2023-02-28T09:21:59;11.27;;;9.03;;
944;SDS011;459;48.676;9.034;2023-02-28T09:24:24;10.63;;;9.27;;
944;SDS011;459;48.676;9.034;2023-02-28T09:26:49;14.23;;;9.50;;
944;SDS011;459;48.676;9.034;2023-02-28T09:29:14;11.47;;;10.00;;
944;SDS011;459;48.676;9.034;2023-02-28T09:31:41;9.30;;;8.23;;
944;SDS011;459;48.676;9.034;2023-02-28T09:34:06;11.27;;;10.10;;
944;SDS011;459;48.676;9.034;2023-02-28T09:36:32;12.47;;;8.97;;
944;SDS011;459;48.676;9.034;2023-02-28T09:38:58;9.97;;;8.93;;
944;SDS011;459;48.676;9.034;2023-02-28T09:41:24;11.90;;;9.53;;
944;SDS011;459;48.676;9.034;2023-02-28T09:43:55;12.70;;;8.90;;
944;SDS011;459;48.676;9.034;2023-02-28T09:46:32;15.57;;;10.77;;
944;SDS011;459;48.676;9.034;2023-02-28T09:48:58;10.23;;;9.20;;
944;SDS011;459;48.676;9.034;2023-02-28T09:51:37;9.70;;;8.73;;
944;SDS011;459;48.676;9.034;2023-02-28T09:54:04;11.80;;;9.50;;
944;SDS011;459;48.676;9.034;2023-02-28T09:56:36;15.90;;;10.50;;
944;SDS011;459;48.676;9.034;2023-02-28T09:59:18;11.17;;;9.47;;
944;SDS011;459;48.676;9.034;2023-02-28T10:01:49;13.70;;;10.10;;
944;SDS011;459;48.676;9.034;2023-02-28T10:07:02;10.83;;;9.37;;
944;SDS011;459;48.676;9.034;2023-02-28T10:09:30;9.97;;;8.97;;
944;SDS011;459;48.676;9.034;2023-02-28T10:11:57;12.73;;;10.20;;
944;SDS011;459;48.676;9.034;2023-02-28T10:14:26;12.90;;;9.50;;
944;SDS011;459;48.676;9.034;2023-02-28T10:17:03;13.23;;;10.10;;
944;SDS011;459;48.676;9.034;2023-02-28T10:19:31;10.23;;;9.20;;
944;SDS011;459;48.676;9.034;2023-02-28T10:22:01;13.30;;;11.90;;
944;SDS011;459;48.676;9.034;2023-02-28T10:24:30;19.50;;;12.90;;
944;SDS011;459;48.676;9.034;2023-02-28T10:27:05;10.60;;;9.50;;
944;SDS011;459;48.676;9.034;2023-02-28T10:29:34;12.53;;;11.23;;
944;SDS011;459;48.676;9.034;2023-02-28T10:32:01;13.70;;;10.53;;
944;SDS011;459;48.676;9.034;2023-02-28T10:34:27;14.80;;;10.00;;
944;SDS011;459;48.676;9.034;2023-02-28T10:36:52;12.03;;;9.90;;
944;SDS011;459;48.676;9.034;2023-02-28T10:39:37;17.23;;;10.10;;
944;SDS011;459;48.676;9.034;2023-02-28T10:42:03;12.07;;;8.90;;
944;SDS011;459;48.676;9.034;2023-02-28T10:44:28;10.87;;;9.50;;
944;SDS011;459;48.676;9.034;2023-02-28T10:46:53;12.13;;;9.93;;
944;SDS011;459;48.676;9.034;2023-02-28T10:49:23;12.27;;;9.60;;
944;SDS011;459;48.676;9.034;2023-02-28T10:51:52;20.23;;;10.63;;
944;SDS011;459;48.676;9.034;2023-02-28T10:54:19;11.10;;;9.10;;
944;SDS011;459;48.676;9.034;2023-02-28T10:56:45;10.90;;;9.17;;
944;SDS011;459;48.676;9.034;2023-02-28T10:59:30;11.90;;;9.40;;
944;SDS011;459;48.676;9.034;2023-02-28T11:01:55;11.63;;;8.80;;
944;SDS011;459;48.676;9.034;2023-02-28T11:06:57;12.20;;;9.20;;
944;SDS011;459;48.676;9.034;2023-02-28T11:11:48;12.90;;;9.93;;
944;SDS011;459;48.676;9.034;2023-02-28T11:14:19;9.83;;;8.83;;
944;SDS011;459;48.676;9.034;2023-02-28T11:16:45;13.97;;;10.53;;
944;SDS011;459;48.676;9.034;2023-02-28T11:19:16;13.20;;;10.40;;
944;SDS011;459;48.676;9.034;2023-02-28T11:21:46;11.73;;;9.73;;
944;SDS011;459;48.676;9.034;2023-02-28T11:26:45;12.97;;;9.33;;
944;SDS011;459;48.676;9.034;2023-02-28T11:31:39;11.50;;;9.50;;
944;SDS011;459;48.676;9.034;2023-02-28T11:34:21;10.87;;;9.73;;
944;SDS011;459;48.676;9.034;2023-02-28T11:36:47;12.55;;;10.35;;
944;SDS011;459;48.676;9.034;2023-02-28T11:39:13;11.37;;;9.60;;
944;SDS011;459;48.676;9.034;2023-02-28T11:46:40;9.63;;;8.52;;
944;SDS011;459;48.676;9.034;2023-02-28T11:54:21;11.67;;;10.47;;
944;SDS011;459;48.676;9.034;2023-02-28T11:56:53;12.90;;;10.60;;
944;SDS011;459;48.676;9.034;2023-02-28T12:01:51;11.17;;;9.93;;
944;SDS011;459;48.676;9.034;2023-02-28T12:07:09;13.50;;;10.93;;
944;SDS011;459;48.676;9.034;2023-02-28T12:09:43;12.53;;;10.43;;
944;SDS011;459;48.676;9.034;2023-02-28T12:12:19;12.83;;;10.90;;
944;SDS011;459;48.676;9.034;2023-02-28T12:14:52;14.30;;;9.73;;
944;SDS011;459;48.676;9.034;2023-02-28T12:24:55;14.17;;;10.37;;
944;SDS011;459;48.676;9.034;2023-02-28T12:27:24;11.83;;;10.10;;
944;SDS011;459;48.676;9.034;2023-02-28T12:30:24;13.13;;;10.53;;
944;SDS011;459;48.676;9.034;2023-02-28T12:32:48;11.10;;;10.00;;
944;SDS011;459;48.676;9.034;2023-02-28T12:35:36;13.80;;;11.40;;
944;SDS011;459;48.676;9.034;2023-02-28T12:38:09;11.00;;;9.90;;
944;SDS011;459;48.676;9.034;2023-02-28T12:40:43;11.90;;;10.67;;
944;SDS011;459;48.676;9.034;2023-02-28T12:43:09;12.47;;;10.73;;
944;SDS011;459;48.676;9.034;2023-02-28T12:45:44;11.97;;;10.60;;
944;SDS011;459;48.676;9.034;2023-02-28T12:48:53;11.57;;;10.37;;
944;SDS011;459;48.676;9.034;2023-02-28T12:50:59;14.33;;;11.13;;
944;SDS011;459;48.676;9.034;2023-02-28T12:53:33;13.53;;;11.00;;
944;SDS011;459;48.676;9.034;2023-02-28T12:56:04;11.93;;;10.50;;
944;SDS011;459;48.676;9.034;2023-02-28T13:04:05;11.10;;;10.00;;
944;SDS011;459;48.676;9.034;2023-02-28T13:11:28;10.50;;;9.50;;
944;SDS011;459;48.676;9.034;2023-02-28T13:14:01;10.53;;;9.43;;
944;SDS011;459;48.676;9.034;2023-02-28T13:16:27;9.67;;;8.57;;
944;SDS011;459;48.676;9.034;2023-02-28T13:18:52;10.80;;;9.70;;
944;SDS011;459;48.676;9.034;2023-02-28T13:21:32;12.40;;;11.17;;
944;SDS011;459;48.676;9.034;2023-02-28T13:24:07;11.37;;;10.30;;
944;SDS011;459;48.676;9.034;2023-02-28T13:27:10;12.67;;;9.70;;
944;SDS011;459;48.676;9.034;2023-02-28T13:29:24;13.00;;;11.13;;
944;SDS011;459;48.676;9.034;2023-02-28T13:42:49;11.57;;;10.37;;
944;SDS011;459;48.676;9.034;2023-02-28T13:52:46;11.10;;;9.30;;
944;SDS011;459;48.676;9.034;2023-02-28T13:55:24;11.60;;;10.40;;
944;SDS011;459;48.676;9.034;2023-02-28T13:57:57;11.33;;;10.27;;
944;SDS011;459;48.676;9.034;2023-02-28T14:00:45;9.77;;;8.90;;
944;SDS011;459;48.676;9.034;2023-02-28T14:11:26;11.77;;;10.63;;
944;SDS011;459;48.676;9.034;2023-02-28T14:13:51;11.53;;;10.33;;
944;SDS011;459;48.676;9.034;2023-02-28T14:16:17;12.23;;;10.53;;
944;SDS011;459;48.676;9.034;2023-02-28T14:18:49;10.83;;;9.73;;
944;SDS011;459;48.676;9.034;2023-02-28T14:21:25;9.80;;;8.90;;
944;SDS011;459;48.676;9.034;2023-02-28T14:26:26;12.03;;;9.50;;
944;SDS011;459;48.676;9.034;2023-02-28T14:31:29;10.27;;;9.27;;
944;SDS011;459;48.676;9.034;2023-02-28T14:36:21;10.63;;;9.67;;
944;SDS011;459;48.676;9.034;2023-02-28T14:41:23;12.43;;;10.40;;
944;SDS011;459;48.676;9.034;2023-02-28T14:43:50;11.67;;;10.20;;
944;SDS011;459;48.676;9.034;2023-02-28T14:46:16;10.90;;;9.80;;
944;SDS011;459;48.676;9.034;2023-02-28T14:48:44;11.40;;;10.30;;
944;SDS011;459;48.676;9.034;2023-02-28T14:51:09;11.80;;;10.37;;
944;SDS011;459;48.676;9.034;2023-02-28T14:53:35;10.13;;;9.13;;
944;SDS011;459;48.676;9.034;2023-02-28T14:56:02;9.60;;;8.60;;
944;SDS011;459;48.676;9.034;2023-02-28T14:58:31;11.00;;;9.90;;
944;SDS011;459;48.676;9.034;2023-02-28T15:00:58;10.13;;;9.20;;
944;SDS011;459;48.676;9.034;2023-02-28T15:03:28;9.93;;;8.93;;
944;SDS011;459;48.676;9.034;2023-02-28T15:05:59;11.40;;;10.23;;
944;SDS011;459;48.676;9.034;2023-02-28T15:08:24;11.03;;;9.93;;
944;SDS011;459;48.676;9.034;2023-02-28T15:10:53;10.63;;;9.50;;
944;SDS011;459;48.676;9.034;2023-02-28T15:13:18;10.63;;;9.27;;
944;SDS011;459;48.676;9.034;2023-02-28T15:18:14;10.80;;;9.70;;
944;SDS011;459;48.676;9.034;2023-02-28T15:20:41;11.97;;;10.70;;
944;SDS011;459;48.676;9.034;2023-02-28T15:23:07;12.70;;;11.17;;
944;SDS011;459;48.676;9.034;2023-02-28T15:25:32;10.13;;;9.13;;
944;SDS011;459;48.676;9.034;2023-02-28T15:27:57;11.00;;;9.90;;
944;SDS011;459;48.676;9.034;2023-02-28T15:30:27;9.70;;;8.87;;
944;SDS011;459;48.676;9.034;2023-02-28T15:33:04;10.83;;;9.93;;
944;SDS011;459;48.676;9.034;2023-02-28T15:35:30;9.93;;;8.93;;
944;SDS011;459;48.676;9.034;2023-02-28T15:38:02;10.67;;;9.57;;
944;SDS011;459;48.676;9.034;2023-02-28T15:40:35;11.43;;;10.23;;
944;SDS011;459;48.676;9.034;2023-02-28T15:45:51;11.60;;;10.50;;
944;SDS011;459;48.676;9.034;2023-02-28T15:48:21;10.83;;;9.83;;
944;SDS011;459;48.676;9.034;2023-02-28T15:50:48;11.27;;;10.10;;
944;SDS011;459;48.676;9.034;2023-02-28T15:53:17;12.13;;;9.23;;
944;SDS011;459;48.676;9.034;2023-02-28T15:55:44;11.57;;;9.77;;
944;SDS011;459;48.676;9.034;2023-02-28T15:58:09;11.30;;;10.13;;
944;SDS011;459;48.676;9.034;2023-02-28T16:00:37;9.40;;;8.60;;
944;SDS011;459;48.676;9.034;2023-02-28T16:03:22;9.90;;;8.90;;
944;SDS011;459;48.676;9.034;2023-02-28T16:05:50;11.43;;;9.60;;
944;SDS011;459;48.676;9.034;2023-02-28T16:08:30;10.73;;;9.73;;
944;SDS011;459;48.676;9.034;2023-02-28T16:10:56;11.00;;;9.30;;
944;SDS011;459;48.676;9.034;2023-02-28T16:13:21;13.17;;;9.20;;
944;SDS011;459;48.676;9.034;2023-02-28T16:15:46;11.87;;;8.80;;
944;SDS011;459;48.676;9.034;2023-02-28T16:18:14;11.27;;;10.13;;
944;SDS011;459;48.676;9.034;2023-02-28T16:20:39;10.73;;;9.10;;
944;SDS011;459;48.676;9.034;2023-02-28T16:23:04;11.97;;;10.10;;
944;SDS011;459;48.676;9.034;2023-02-28T16:25:36;10.73;;;9.53;;
944;SDS011;459;48.676;9.034;2023-02-28T16:28:02;10.13;;;9.13;;
944;SDS011;459;48.676;9.034;2023-02-28T16:30:28;10.20;;;8.97;;
944;SDS011;459;48.676;9.034;2023-02-28T16:32:56;13.53;;;10.27;;
944;SDS011;459;48.676;9.034;2023-02-28T16:35:22;12.23;;;8.97;;
944;SDS011;459;48.676;9.034;2023-02-28T16:37:47;11.90;;;9.37;;
944;SDS011;459;48.676;9.034;2023-02-28T16:40:16;10.87;;;8.67;;
944;SDS011;459;48.676;9.034;2023-02-28T16:42:42;11.60;;;10.43;;
944;SDS011;459;48.676;9.034;2023-02-28T16:45:11;13.03;;;10.30;;
944;SDS011;459;48.676;9.034;2023-02-28T16:47:39;11.70;;;10.43;;
944;SDS011;459;48.676;9.034;2023-02-28T16:50:11;12.30;;;10.07;;
944;SDS011;459;48.676;9.034;2023-02-28T16:52:37;13.57;;;10.73;;
944;SDS011;459;48.676;9.034;2023-02-28T16:55:02;13.43;;;10.10;;
944;SDS011;459;48.676;9.034;2023-02-28T16:57:28;16.30;;;11.27;;
944;SDS011;459;48.676;9.034;2023-02-28T16:59:53;13.00;;;11.70;;
944;SDS011;459;48.676;9.034;2023-02-28T17:02:18;12.80;;;11.07;;
944;SDS011;459;48.676;9.034;2023-02-28T17:04:44;13.87;;;11.53;;
944;SDS011;459;48.676;9.034;2023-02-28T17:07:11;14.30;;;11.23;;
944;SDS011;459;48.676;9.034;2023-02-28T17:09:37;13.40;;;11.47;;
944;SDS011;459;48.676;9.034;2023-02-28T17:12:02;11.83;;;10.27;;
944;SDS011;459;48.676;9.034;2023-02-28T17:14:27;11.13;;;9.97;;
944;SDS011;459;48.676;9.034;2023-02-28T17:16:52;15.97;;;11.17;;
944;SDS011;459;48.676;9.034;2023-02-28T17:19:17;10.70;;;9.57;;
944;SDS011;459;48.676;9.034;2023-02-28T17:21:43;15.07;;;11.53;;
944;SDS011;459;48.676;9.034;2023-02-28T17:24:09;12.23;;;10.57;;
944;SDS011;459;48.676;9.034;2023-02-28T17:26:37;15.37;;;12.03;;
944;SDS011;459;48.676;9.034;2023-02-28T17:29:02;15.27;;;11.30;;
944;SDS011;459;48.676;9.034;2023-02-28T17:31:27;16.27;;;12.20;;